Alianca Shanghai — A8CQ5 — position and weather

sailwx.info

Track history (hours):
 
Tides and Currents Weather Stations Pressure Air Temp Water Temp Dewpoint Dewpoint Depression Visibility Wind Speed Wind Dir Waves Ship Positions

Alianca Shanghai

Last reported at 2016-Jun-09 07:33 UTC. Time now 2016-Jun-27 11:30 UTC.
Position N 16°29' W 017°60'.
Warning: this ship's position is 18 days out of date.

Length 199.9 m; beam 29.8 m; draft 11.6 m.

Type: Ship. MMSI: 636016014.

Date/timePositionNaut miles runAvg speedWind from/ knotsBaromVisibWave heightAir tempDewpointWater temp
2016-Jun-09 07:33N 16°29' W 017°60'69115.0
2016-Jun-07 09:33N 27°44' W 015°19'1313.2
2016-Jun-07 08:33N 27°56' W 015°16'1212.5
2016-Jun-07 07:33N 28°08' W 015°22'3 2.5
2016-Jun-07 06:23N 28°08' W 015°25'0 0.0
2016-Jun-07 05:26N 28°08' W 015°25'0 0.0
2016-Jun-07 04:29N 28°08' W 015°25'0 0.0
2016-Jun-07 03:29N 28°08' W 015°25'0 0.0
2016-Jun-07 02:26N 28°08' W 015°25'0 0.0
2016-Jun-07 01:32N 28°08' W 015°25'0 0.0
2016-Jun-07 00:32N 28°08' W 015°25'0 0.0
2016-Jun-06 23:33N 28°08' W 015°25'0 0.0
2016-Jun-06 22:33N 28°08' W 015°25'0 0.0
2016-Jun-06 21:33N 28°08' W 015°25'0 0.0
2016-Jun-06 20:33N 28°08' W 015°25'0 0.0
2016-Jun-06 19:33N 28°08' W 015°25'0 0.0
2016-Jun-06 18:33N 28°08' W 015°25'0 0.0
2016-Jun-06 17:33N 28°08' W 015°25'0 0.0
2016-Jun-06 16:33N 28°08' W 015°25'3 3.5
2016-Jun-06 15:33N 28°08' W 015°21'1313.0
2016-Jun-06 14:34N 28°16' W 015°10'1413.8
2016-Jun-06 13:34N 28°25' W 014°57'1414.0
2016-Jun-06 12:34N 28°34' W 014°45'1414.2
2016-Jun-06 11:33N 28°46' W 014°36'1614.5
2016-Jun-06 10:29N 28°57' W 014°25'  
2016-Jun-03 11:32N 33°43' W 007°37'21513.4
2016-Jun-02 19:29N 36°55' W 009°34'1213.4
2016-Jun-02 18:33N 37°07' W 009°29'1414.0
2016-Jun-02 17:33N 37°19' W 009°19'1312.6
2016-Jun-02 16:33N 37°29' W 009°10'1313.0
2016-Jun-02 15:33N 37°40' W 009°01'1312.7
2016-Jun-02 14:33N 37°51' W 008°52'5 5.4
2016-Jun-02 13:32N 37°56' W 008°51'0 0.0
2016-Jun-02 12:32N 37°56' W 008°51'0 0.0
2016-Jun-02 11:32N 37°56' W 008°51'0 0.0
2016-Jun-02 10:32N 37°56' W 008°51'0 0.0
2016-Jun-02 09:29N 37°56' W 008°51'0 0.0
2016-Jun-02 08:32N 37°56' W 008°51'0 0.0
2016-Jun-02 07:32N 37°56' W 008°51'0 0.0
2016-Jun-02 06:32N 37°56' W 008°51'0 0.0
2016-Jun-02 05:32N 37°56' W 008°51'0 0.0
2016-Jun-02 04:32N 37°56' W 008°51'0 0.0
2016-Jun-02 03:26N 37°56' W 008°51'0 0.0
2016-Jun-02 02:32N 37°56' W 008°51'0 0.0
2016-Jun-02 01:32N 37°56' W 008°51'0 0.0
2016-Jun-02 00:32N 37°56' W 008°51'0 0.0
2016-Jun-01 23:32N 37°56' W 008°51'0 0.0
2016-Jun-01 22:29N 37°56' W 008°51'0 0.0
2016-Jun-01 21:32N 37°56' W 008°51'0 0.0
2016-Jun-01 20:32N 37°56' W 008°51'0 0.0
2016-Jun-01 19:29N 37°56' W 008°51'0 0.0
2016-Jun-01 18:32N 37°56' W 008°51'0 0.0
2016-Jun-01 17:32N 37°56' W 008°51'0 0.0
2016-Jun-01 16:32N 37°56' W 008°51'0 0.0
2016-Jun-01 15:32N 37°56' W 008°51'0 0.0
2016-Jun-01 14:32N 37°56' W 008°51'0 0.0
2016-Jun-01 13:32N 37°56' W 008°51'2 2.1
2016-Jun-01 12:33N 37°54' W 008°50'6 6.0
2016-Jun-01 11:33N 37°49' W 008°55'2 2.4
2016-Jun-01 10:33N 37°47' W 008°57'1 0.8
2016-Jun-01 09:32N 37°48' W 008°57'1 0.5
2016-Jun-01 08:33N 37°48' W 008°58'3 3.2
2016-Jun-01 07:33N 37°48' W 009°02'1 0.8
2016-Jun-01 06:33N 37°48' W 009°02'0 0.3
2016-Jun-01 05:33N 37°49' W 009°02'7 6.7
2016-Jun-01 04:33N 37°51' W 009°10'7 7.0
2016-Jun-01 03:33N 37°52' W 009°19'8 8.4
2016-Jun-01 02:33N 37°54' W 009°29'8 8.3
2016-Jun-01 01:33N 37°56' W 009°39'8 7.7
2016-Jun-01 00:33N 37°59' W 009°48'8 7.7
2016-May-31 23:33N 38°06' W 009°54'8 8.2
2016-May-31 22:33N 38°13' W 009°57'9 8.3
2016-May-31 21:27N 38°22' W 009°60'8 8.5
2016-May-31 20:33N 38°30' W 010°03'9 8.6
2016-May-31 19:31N 38°38' W 010°05'8 8.1
2016-May-31 18:33N 38°46' W 010°07'9 8.3
2016-May-31 17:31N 38°55' W 010°06'8 8.2
2016-May-31 16:33N 39°03' W 010°06'  
Track history (hours):
 
Tides and Currents Weather Stations Pressure Air Temp Water Temp Dewpoint Dewpoint Depression Visibility Wind Speed Wind Dir Waves Ship Positions

Alianca Shanghai

Last reported at 2016-Jun-09 07:33 UTC. Time now 2016-Jun-27 11:30 UTC.
Position N 16°29' W 017°60'.
Warning: this ship's position is 18 days out of date.

Length 199.9 m; beam 29.8 m; draft 11.6 m.

Type: Ship. MMSI: 636016014.

Date/timePositionNaut miles runAvg speedWind from/ knotsBaromVisibWave heightAir tempDewpointWater temp
2016-Jun-09 07:33N 16°29' W 017°60'69115.0
2016-Jun-07 09:33N 27°44' W 015°19'1313.2
2016-Jun-07 08:33N 27°56' W 015°16'1212.5
2016-Jun-07 07:33N 28°08' W 015°22'3 2.5
2016-Jun-07 06:23N 28°08' W 015°25'0 0.0
2016-Jun-07 05:26N 28°08' W 015°25'0 0.0
2016-Jun-07 04:29N 28°08' W 015°25'0 0.0
2016-Jun-07 03:29N 28°08' W 015°25'0 0.0
2016-Jun-07 02:26N 28°08' W 015°25'0 0.0
2016-Jun-07 01:32N 28°08' W 015°25'0 0.0
2016-Jun-07 00:32N 28°08' W 015°25'0 0.0
2016-Jun-06 23:33N 28°08' W 015°25'0 0.0
2016-Jun-06 22:33N 28°08' W 015°25'0 0.0
2016-Jun-06 21:33N 28°08' W 015°25'0 0.0
2016-Jun-06 20:33N 28°08' W 015°25'0 0.0
2016-Jun-06 19:33N 28°08' W 015°25'0 0.0
2016-Jun-06 18:33N 28°08' W 015°25'0 0.0
2016-Jun-06 17:33N 28°08' W 015°25'0 0.0
2016-Jun-06 16:33N 28°08' W 015°25'3 3.5
2016-Jun-06 15:33N 28°08' W 015°21'1313.0
2016-Jun-06 14:34N 28°16' W 015°10'1413.8
2016-Jun-06 13:34N 28°25' W 014°57'1414.0
2016-Jun-06 12:34N 28°34' W 014°45'1414.2
2016-Jun-06 11:33N 28°46' W 014°36'1614.5
2016-Jun-06 10:29N 28°57' W 014°25'  
2016-Jun-03 11:32N 33°43' W 007°37'21513.4
2016-Jun-02 19:29N 36°55' W 009°34'1213.4
2016-Jun-02 18:33N 37°07' W 009°29'1414.0
2016-Jun-02 17:33N 37°19' W 009°19'1312.6
2016-Jun-02 16:33N 37°29' W 009°10'1313.0
2016-Jun-02 15:33N 37°40' W 009°01'1312.7
2016-Jun-02 14:33N 37°51' W 008°52'5 5.4
2016-Jun-02 13:32N 37°56' W 008°51'0 0.0
2016-Jun-02 12:32N 37°56' W 008°51'0 0.0
2016-Jun-02 11:32N 37°56' W 008°51'0 0.0
2016-Jun-02 10:32N 37°56' W 008°51'0 0.0
2016-Jun-02 09:29N 37°56' W 008°51'0 0.0
2016-Jun-02 08:32N 37°56' W 008°51'0 0.0
2016-Jun-02 07:32N 37°56' W 008°51'0 0.0
2016-Jun-02 06:32N 37°56' W 008°51'0 0.0
2016-Jun-02 05:32N 37°56' W 008°51'0 0.0
2016-Jun-02 04:32N 37°56' W 008°51'0 0.0
2016-Jun-02 03:26N 37°56' W 008°51'0 0.0
2016-Jun-02 02:32N 37°56' W 008°51'0 0.0
2016-Jun-02 01:32N 37°56' W 008°51'0 0.0
2016-Jun-02 00:32N 37°56' W 008°51'0 0.0
2016-Jun-01 23:32N 37°56' W 008°51'0 0.0
2016-Jun-01 22:29N 37°56' W 008°51'0 0.0
2016-Jun-01 21:32N 37°56' W 008°51'0 0.0
2016-Jun-01 20:32N 37°56' W 008°51'0 0.0
2016-Jun-01 19:29N 37°56' W 008°51'0 0.0
2016-Jun-01 18:32N 37°56' W 008°51'0 0.0
2016-Jun-01 17:32N 37°56' W 008°51'0 0.0
2016-Jun-01 16:32N 37°56' W 008°51'0 0.0
2016-Jun-01 15:32N 37°56' W 008°51'0 0.0
2016-Jun-01 14:32N 37°56' W 008°51'0 0.0
2016-Jun-01 13:32N 37°56' W 008°51'2 2.1
2016-Jun-01 12:33N 37°54' W 008°50'6 6.0
2016-Jun-01 11:33N 37°49' W 008°55'2 2.4
2016-Jun-01 10:33N 37°47' W 008°57'1 0.8
2016-Jun-01 09:32N 37°48' W 008°57'1 0.5
2016-Jun-01 08:33N 37°48' W 008°58'3 3.2
2016-Jun-01 07:33N 37°48' W 009°02'1 0.8
2016-Jun-01 06:33N 37°48' W 009°02'0 0.3
2016-Jun-01 05:33N 37°49' W 009°02'7 6.7
2016-Jun-01 04:33N 37°51' W 009°10'7 7.0
2016-Jun-01 03:33N 37°52' W 009°19'8 8.4
2016-Jun-01 02:33N 37°54' W 009°29'8 8.3
2016-Jun-01 01:33N 37°56' W 009°39'8 7.7
2016-Jun-01 00:33N 37°59' W 009°48'8 7.7
2016-May-31 23:33N 38°06' W 009°54'8 8.2
2016-May-31 22:33N 38°13' W 009°57'9 8.3
2016-May-31 21:27N 38°22' W 009°60'8 8.5
2016-May-31 20:33N 38°30' W 010°03'9 8.6
2016-May-31 19:31N 38°38' W 010°05'8 8.1
2016-May-31 18:33N 38°46' W 010°07'9 8.3
2016-May-31 17:31N 38°55' W 010°06'8 8.2
2016-May-31 16:33N 39°03' W 010°06'  

Dump ship's entire track history